createdAt,value
2023-01-20T00:00:37.563Z,31.90
2023-01-20T00:03:05.232Z,38.47
2023-01-20T00:05:32.898Z,43.53
2023-01-20T00:08:00.755Z,36.37
2023-01-20T00:10:28.617Z,40.20
2023-01-20T00:12:58.019Z,29.73
2023-01-20T00:15:26.027Z,27.43
2023-01-20T00:17:53.652Z,34.80
2023-01-20T00:20:21.577Z,30.40
2023-01-20T00:22:49.200Z,37.30
2023-01-20T00:25:17.205Z,47.03
2023-01-20T00:27:45.874Z,67.63
2023-01-20T00:30:15.640Z,43.97
2023-01-20T00:32:44.822Z,65.77
2023-01-20T00:35:13.272Z,35.13
2023-01-20T00:37:41.122Z,78.13
2023-01-20T00:40:09.445Z,30.90
2023-01-20T00:42:37.046Z,37.87
2023-01-20T00:45:05.492Z,44.57
2023-01-20T00:47:35.237Z,55.00
2023-01-20T00:50:03.267Z,40.20
2023-01-20T00:52:30.875Z,39.93
2023-01-20T00:54:58.611Z,66.10
2023-01-20T00:57:28.916Z,40.13
2023-01-20T01:00:04.396Z,39.73
2023-01-20T01:02:35.943Z,71.40
2023-01-20T01:05:09.373Z,39.60
2023-01-20T01:07:37.924Z,55.07
2023-01-20T01:10:13.249Z,28.37
2023-01-20T01:12:44.470Z,39.90
2023-01-20T01:15:14.224Z,34.60
2023-01-20T01:17:44.189Z,29.70
2023-01-20T01:20:15.130Z,40.30
2023-01-20T01:22:43.838Z,48.97
2023-01-20T01:25:17.054Z,46.23
2023-01-20T01:27:45.964Z,48.00
2023-01-20T01:30:14.842Z,49.47
2023-01-20T01:32:47.226Z,39.20
2023-01-20T01:35:17.761Z,37.03
2023-01-20T01:37:46.801Z,39.00
2023-01-20T01:40:15.581Z,43.50
2023-01-20T01:42:43.986Z,42.53
2023-01-20T01:45:25.757Z,47.10
2023-01-20T01:48:02.899Z,41.60
2023-01-20T01:50:36.686Z,45.60
2023-01-20T01:53:04.464Z,39.73
2023-01-20T01:55:35.494Z,41.27
2023-01-20T01:58:04.266Z,43.03
2023-01-20T02:00:31.946Z,37.10
2023-01-20T02:03:00.516Z,37.53
2023-01-20T02:05:30.235Z,27.53
2023-01-20T02:07:59.902Z,40.73
2023-01-20T02:10:27.825Z,37.40
2023-01-20T02:12:55.773Z,40.33
2023-01-20T02:15:26.311Z,36.63
2023-01-20T02:18:05.007Z,46.80
2023-01-20T02:20:37.804Z,39.57
2023-01-20T02:23:10.712Z,33.73
2023-01-20T02:25:56.834Z,35.27
2023-01-20T02:28:58.263Z,41.67
2023-01-20T02:31:36.392Z,33.57
2023-01-20T02:34:08.190Z,37.43
2023-01-20T02:36:41.510Z,39.83
2023-01-20T02:39:12.684Z,31.03
2023-01-20T02:41:59.142Z,31.33
2023-01-20T02:44:32.353Z,53.53
2023-01-20T02:47:01.934Z,32.03
2023-01-20T02:49:33.378Z,26.80
2023-01-20T02:52:03.260Z,34.33
2023-01-20T02:54:32.337Z,36.70
2023-01-20T02:57:01.118Z,35.37
2023-01-20T02:59:31.335Z,34.43
2023-01-20T03:02:02.453Z,36.60
2023-01-20T03:04:37.287Z,32.40
2023-01-20T03:07:05.853Z,30.13
2023-01-20T03:09:36.870Z,27.27
2023-01-20T03:12:10.739Z,34.60
2023-01-20T03:14:38.999Z,31.07
2023-01-20T03:17:06.684Z,32.90
2023-01-20T03:19:36.076Z,29.63
2023-01-20T03:22:04.259Z,38.40
2023-01-20T03:24:33.647Z,41.73
2023-01-20T03:27:01.355Z,29.47
2023-01-20T03:29:30.769Z,36.00
2023-01-20T03:32:00.136Z,26.63
2023-01-20T03:34:29.567Z,34.20
2023-01-20T03:36:59.150Z,36.27
2023-01-20T03:39:26.947Z,28.17
2023-01-20T03:42:01.160Z,30.23
2023-01-20T03:44:34.513Z,27.50
2023-01-20T03:47:17.919Z,26.77
2023-01-20T03:49:47.051Z,26.10
2023-01-20T03:52:18.747Z,42.97
2023-01-20T03:54:54.308Z,36.57
2023-01-20T03:57:24.316Z,36.23
2023-01-20T03:59:52.694Z,34.23
2023-01-20T04:02:20.872Z,40.10
2023-01-20T04:04:50.630Z,29.30
2023-01-20T04:07:21.506Z,31.23
2023-01-20T04:09:52.481Z,31.70
2023-01-20T04:12:20.344Z,31.97
2023-01-20T04:14:48.391Z,36.63
2023-01-20T04:17:16.532Z,39.37
2023-01-20T04:19:44.206Z,37.13
2023-01-20T04:22:15.368Z,40.13
2023-01-20T04:24:46.900Z,36.90
2023-01-20T04:27:14.801Z,31.97
2023-01-20T04:29:42.957Z,38.73
2023-01-20T04:32:11.843Z,34.67
2023-01-20T04:34:39.923Z,43.90
2023-01-20T04:37:08.004Z,34.27
2023-01-20T04:39:35.827Z,39.00
2023-01-20T04:42:06.167Z,34.60
2023-01-20T04:44:33.866Z,41.97
2023-01-20T04:47:01.927Z,36.47
2023-01-20T04:49:29.577Z,39.70
2023-01-20T04:51:57.563Z,40.47
2023-01-20T04:54:25.192Z,44.67
2023-01-20T04:56:52.873Z,54.67
2023-01-20T04:59:22.839Z,38.33
2023-01-20T05:01:50.650Z,38.87
2023-01-20T05:04:18.475Z,37.80
2023-01-20T05:06:46.092Z,49.20
2023-01-20T05:09:15.194Z,36.27
2023-01-20T05:11:43.465Z,39.23
2023-01-20T05:14:11.638Z,36.57
2023-01-20T05:16:40.993Z,39.30
2023-01-20T05:19:08.661Z,40.80
2023-01-20T05:21:36.325Z,46.00
2023-01-20T05:24:04.278Z,45.30
2023-01-20T05:26:32.769Z,38.10
2023-01-20T05:29:00.774Z,42.57
2023-01-20T05:31:28.983Z,40.80
2023-01-20T05:33:58.132Z,40.40
2023-01-20T05:36:28.498Z,47.67
2023-01-20T05:38:56.250Z,37.50
2023-01-20T05:41:23.948Z,35.00
2023-01-20T05:43:53.920Z,40.03
2023-01-20T05:46:21.594Z,40.97
2023-01-20T05:48:49.301Z,44.07
2023-01-20T05:51:18.529Z,42.53
2023-01-20T05:53:46.394Z,41.30
2023-01-20T05:56:15.928Z,44.80
2023-01-20T05:58:44.190Z,44.60
2023-01-20T06:01:13.502Z,44.33
2023-01-20T06:03:41.288Z,43.90
2023-01-20T06:06:09.667Z,47.67
2023-01-20T06:08:39.152Z,47.33
2023-01-20T06:11:06.957Z,48.53
2023-01-20T06:13:35.300Z,46.53
2023-01-20T06:16:04.207Z,51.00
2023-01-20T06:18:34.523Z,43.83
2023-01-20T06:21:02.297Z,43.93
2023-01-20T06:23:30.312Z,41.63
2023-01-20T06:26:03.162Z,41.20
2023-01-20T06:28:32.989Z,49.20
2023-01-20T06:31:04.298Z,46.40
2023-01-20T06:33:32.279Z,44.70
2023-01-20T06:36:00.182Z,38.93
2023-01-20T06:38:29.887Z,43.23
2023-01-20T06:40:57.929Z,41.00
2023-01-20T06:43:27.131Z,40.27
2023-01-20T06:45:54.971Z,42.97
2023-01-20T06:48:22.748Z,44.07
2023-01-20T06:50:50.474Z,41.37
2023-01-20T06:53:18.524Z,47.70
2023-01-20T06:55:54.547Z,49.03
2023-01-20T06:58:22.399Z,36.80
2023-01-20T07:00:51.418Z,45.93
2023-01-20T07:03:19.231Z,46.67
2023-01-20T07:05:54.083Z,42.97
2023-01-20T07:08:21.761Z,42.37
2023-01-20T07:10:49.462Z,42.77
2023-01-20T07:13:17.498Z,43.17
2023-01-20T07:15:45.279Z,48.63
2023-01-20T07:18:14.670Z,45.50
2023-01-20T07:20:43.540Z,43.30
2023-01-20T07:23:11.278Z,42.93
2023-01-20T07:25:39.499Z,39.20
2023-01-20T07:28:07.672Z,37.70
2023-01-20T07:30:35.305Z,43.10
2023-01-20T07:33:03.224Z,43.43
2023-01-20T07:35:32.782Z,48.43
2023-01-20T07:38:00.505Z,42.40
2023-01-20T07:40:28.252Z,37.60
2023-01-20T07:42:56.626Z,43.10
2023-01-20T07:45:24.347Z,40.40
2023-01-20T07:47:52.469Z,48.67
2023-01-20T07:50:20.063Z,37.27
2023-01-20T07:52:49.243Z,42.40
2023-01-20T07:55:17.335Z,43.13
2023-01-20T07:57:45.176Z,47.07
2023-01-20T08:00:13.127Z,47.80
2023-01-20T08:02:40.915Z,47.60
2023-01-20T08:05:08.859Z,40.90
2023-01-20T08:07:36.969Z,47.70
2023-01-20T08:10:06.867Z,45.33
2023-01-20T08:12:34.780Z,45.70
2023-01-20T08:15:02.420Z,46.03
2023-01-20T08:17:30.175Z,51.80
2023-01-20T08:19:57.993Z,43.50
2023-01-20T08:22:26.007Z,39.73
2023-01-20T08:24:53.609Z,44.00
2023-01-20T08:27:22.805Z,47.07
2023-01-20T08:29:50.541Z,38.70
2023-01-20T08:32:40.120Z,44.20
2023-01-20T08:35:08.145Z,42.03
2023-01-20T08:37:36.648Z,48.23
2023-01-20T08:40:06.121Z,41.20
2023-01-20T08:42:35.171Z,40.93
2023-01-20T08:45:02.820Z,45.50
2023-01-20T08:47:31.895Z,43.97
2023-01-20T08:49:59.550Z,49.00
2023-01-20T08:52:27.707Z,44.00
2023-01-20T08:54:55.328Z,43.20
2023-01-20T08:57:25.512Z,41.67
2023-01-20T08:59:55.550Z,45.50
2023-01-20T09:02:24.600Z,49.93
2023-01-20T09:04:54.523Z,44.70
2023-01-20T09:07:22.188Z,47.03
2023-01-20T09:09:50.100Z,45.20
2023-01-20T09:12:17.852Z,45.30
2023-01-20T09:14:45.718Z,45.90
2023-01-20T09:17:14.995Z,42.80
2023-01-20T09:19:42.769Z,42.50
2023-01-20T09:22:10.479Z,42.50
2023-01-20T09:24:38.193Z,41.87
2023-01-20T09:27:05.844Z,42.87
2023-01-20T09:29:33.895Z,40.47
2023-01-20T09:32:01.706Z,45.20
2023-01-20T09:34:31.711Z,39.37
2023-01-20T09:37:20.176Z,44.00
2023-01-20T09:40:05.492Z,43.03
2023-01-20T09:42:53.236Z,41.17
2023-01-20T09:45:25.860Z,51.03
2023-01-20T09:47:56.469Z,55.20
2023-01-20T09:50:59.040Z,41.90
2023-01-20T09:53:34.404Z,49.20
2023-01-20T09:56:03.837Z,44.70
2023-01-20T09:58:34.196Z,48.60
2023-01-20T10:01:08.030Z,51.47
2023-01-20T10:03:38.296Z,47.23
2023-01-20T10:06:11.165Z,44.60
2023-01-20T10:08:49.913Z,52.43
2023-01-20T10:11:30.097Z,50.77
2023-01-20T10:14:03.862Z,52.17
2023-01-20T10:16:34.760Z,50.03
2023-01-20T10:19:03.978Z,43.40
2023-01-20T10:21:37.129Z,52.10
2023-01-20T10:24:09.131Z,48.73
2023-01-20T10:26:39.633Z,46.87
2023-01-20T10:29:10.322Z,52.00
2023-01-20T10:31:40.272Z,47.00
2023-01-20T10:34:12.059Z,55.57
2023-01-20T10:36:43.015Z,50.00
2023-01-20T10:39:14.348Z,62.93
2023-01-20T10:41:44.822Z,61.90
2023-01-20T10:44:13.588Z,58.00
2023-01-20T10:46:49.114Z,57.53
2023-01-20T10:49:35.136Z,53.80
2023-01-20T10:52:11.080Z,53.93
2023-01-20T10:54:42.634Z,55.50
2023-01-20T10:57:12.083Z,51.50
2023-01-20T10:59:44.197Z,53.43
2023-01-20T11:02:16.335Z,53.67
2023-01-20T11:04:44.752Z,52.67
2023-01-20T11:07:18.159Z,50.53
2023-01-20T11:09:47.834Z,49.07
2023-01-20T11:12:17.443Z,54.83
2023-01-20T11:14:45.545Z,64.27
2023-01-20T11:17:15.271Z,47.53
2023-01-20T11:19:50.248Z,52.33
2023-01-20T11:22:23.559Z,57.50
2023-01-20T11:24:54.814Z,54.07
2023-01-20T11:27:25.474Z,53.47
2023-01-20T11:29:56.932Z,51.70
2023-01-20T11:32:29.731Z,48.23
2023-01-20T11:34:58.971Z,52.73
2023-01-20T11:37:35.645Z,45.77
2023-01-20T11:40:16.601Z,53.00
2023-01-20T11:42:47.047Z,57.47
2023-01-20T11:45:25.639Z,50.40
2023-01-20T11:48:07.228Z,61.83
2023-01-20T11:50:36.574Z,51.10
2023-01-20T11:53:18.697Z,55.77
2023-01-20T11:55:49.057Z,49.70
2023-01-20T11:58:18.691Z,50.50
2023-01-20T12:00:46.559Z,59.53
2023-01-20T12:03:35.245Z,66.43
2023-01-20T12:06:05.520Z,54.17
2023-01-20T12:08:41.709Z,55.13
2023-01-20T12:11:10.252Z,48.03
2023-01-20T12:14:01.360Z,51.40
2023-01-20T12:16:33.153Z,46.43
2023-01-20T12:19:05.973Z,55.47
2023-01-20T12:21:35.756Z,51.60
2023-01-20T12:24:08.899Z,50.53
2023-01-20T12:26:36.686Z,51.77
2023-01-20T12:29:06.478Z,53.87
2023-01-20T12:31:35.151Z,51.83
2023-01-20T12:34:04.317Z,66.63
2023-01-20T12:36:49.951Z,52.43
2023-01-20T12:39:34.347Z,50.10
2023-01-20T12:42:21.035Z,53.93
2023-01-20T12:45:04.448Z,55.23
2023-01-20T12:47:38.845Z,51.40
2023-01-20T12:50:15.329Z,76.83
2023-01-20T12:52:49.742Z,58.80
2023-01-20T12:55:23.145Z,53.27
2023-01-20T12:58:04.655Z,53.37
2023-01-20T13:00:38.433Z,48.60
2023-01-20T13:03:36.380Z,61.40
2023-01-20T13:06:21.708Z,53.60
2023-01-20T13:08:52.360Z,53.27
2023-01-20T13:11:24.760Z,50.00
2023-01-20T13:14:00.883Z,59.60
2023-01-20T13:16:33.241Z,47.50
2023-01-20T13:19:06.734Z,55.77
2023-01-20T13:21:35.356Z,51.90
2023-01-20T13:24:04.114Z,60.00
2023-01-20T13:26:33.741Z,56.60
2023-01-20T13:29:02.296Z,58.50
2023-01-20T13:31:34.160Z,55.77
2023-01-20T13:34:31.962Z,55.10
2023-01-20T13:37:14.883Z,51.10
2023-01-20T13:39:42.995Z,51.83
2023-01-20T13:42:25.763Z,53.33
2023-01-20T13:45:08.663Z,50.03
2023-01-20T13:48:06.996Z,49.10
2023-01-20T13:50:38.402Z,50.03
2023-01-20T13:53:25.636Z,58.13
2023-01-20T13:56:25.037Z,59.53
2023-01-20T13:58:53.084Z,55.77
2023-01-20T14:01:20.756Z,57.27
2023-01-20T14:04:02.372Z,49.40
2023-01-20T14:06:33.069Z,53.97
2023-01-20T14:09:01.371Z,59.90
2023-01-20T14:11:29.734Z,50.87
2023-01-20T14:13:58.689Z,50.77
2023-01-20T14:16:27.797Z,59.17
2023-01-20T14:18:56.984Z,58.00
2023-01-20T14:21:25.358Z,52.50
2023-01-20T14:23:54.610Z,56.30
2023-01-20T14:26:24.660Z,58.23
2023-01-20T14:28:52.908Z,54.27
2023-01-20T14:31:34.030Z,58.20
2023-01-20T14:34:04.652Z,51.90
2023-01-20T14:36:33.914Z,56.77
2023-01-20T14:39:04.324Z,52.70
2023-01-20T14:41:36.644Z,51.00
2023-01-20T14:44:04.765Z,66.90
2023-01-20T14:46:33.619Z,62.20
2023-01-20T14:49:02.640Z,48.87
2023-01-20T14:51:30.426Z,57.70
2023-01-20T14:54:17.099Z,51.07
2023-01-20T14:56:49.625Z,56.47
2023-01-20T14:59:19.379Z,58.07
2023-01-20T15:01:51.586Z,52.70
2023-01-20T15:04:19.535Z,51.93
2023-01-20T15:06:52.339Z,52.30
2023-01-20T15:09:30.329Z,53.37
2023-01-20T15:12:16.980Z,54.87
2023-01-20T15:14:57.153Z,50.13
2023-01-20T15:17:25.225Z,53.77
2023-01-20T15:19:52.829Z,61.80
2023-01-20T15:22:21.639Z,53.20
2023-01-20T15:24:50.468Z,58.33
2023-01-20T15:27:25.915Z,61.97
2023-01-20T15:30:01.887Z,54.20
2023-01-20T15:32:29.859Z,53.70
2023-01-20T15:34:57.965Z,65.10
2023-01-20T15:37:25.714Z,57.40
2023-01-20T15:39:54.267Z,64.03
2023-01-20T15:42:23.838Z,61.80
2023-01-20T15:44:51.452Z,55.20
2023-01-20T15:47:25.892Z,51.27
2023-01-20T15:49:53.623Z,63.47
2023-01-20T15:52:21.428Z,56.47
2023-01-20T15:54:49.605Z,68.20
2023-01-20T15:57:17.902Z,58.00
2023-01-20T15:59:49.169Z,54.30
2023-01-20T16:02:18.919Z,63.80
2023-01-20T16:04:48.205Z,61.90
2023-01-20T16:07:17.115Z,60.43
2023-01-20T16:09:46.106Z,58.40
2023-01-20T16:12:16.469Z,63.83
2023-01-20T16:14:44.404Z,57.50
2023-01-20T16:17:13.797Z,60.33
2023-01-20T16:19:42.508Z,61.63
2023-01-20T16:22:13.596Z,57.00
2023-01-20T16:24:41.300Z,54.23
2023-01-20T16:27:15.327Z,72.20
2023-01-20T16:29:43.005Z,70.20
2023-01-20T16:32:10.681Z,55.43
2023-01-20T16:34:38.831Z,58.33
2023-01-20T16:37:07.230Z,68.60
2023-01-20T16:39:36.516Z,64.57
2023-01-20T16:42:06.488Z,64.43
2023-01-20T16:44:34.133Z,70.13
2023-01-20T16:47:01.761Z,56.40
2023-01-20T16:49:29.814Z,62.20
2023-01-20T16:51:57.474Z,64.23
2023-01-20T16:54:25.144Z,54.83
2023-01-20T16:56:54.640Z,71.63
2023-01-20T16:59:23.504Z,59.63
2023-01-20T17:01:51.184Z,66.83
2023-01-20T17:04:19.186Z,54.60
2023-01-20T17:06:46.811Z,59.70
2023-01-20T17:09:14.957Z,72.90
2023-01-20T17:11:43.964Z,62.83
2023-01-20T17:14:13.257Z,58.30
2023-01-20T17:16:41.291Z,62.20
2023-01-20T17:19:10.379Z,63.63
2023-01-20T17:21:38.860Z,55.27
2023-01-20T17:24:07.333Z,61.37
2023-01-20T17:26:37.192Z,61.80
2023-01-20T17:29:06.795Z,61.90
2023-01-20T17:31:37.160Z,57.40
2023-01-20T17:34:05.057Z,57.40
2023-01-20T17:36:34.357Z,57.23
2023-01-20T17:39:02.755Z,55.50
2023-01-20T17:41:30.905Z,49.97
2023-01-20T17:43:58.584Z,52.00
2023-01-20T17:46:27.746Z,55.50
2023-01-20T17:48:58.833Z,53.53
2023-01-20T17:51:27.992Z,55.67
2023-01-20T17:53:56.283Z,69.27
2023-01-20T17:56:24.329Z,56.70
2023-01-20T17:58:52.101Z,59.33
2023-01-20T18:01:20.973Z,54.93
2023-01-20T18:03:49.289Z,52.00
2023-01-20T18:06:20.349Z,51.00
2023-01-20T18:08:52.064Z,55.33
2023-01-20T18:11:21.490Z,55.63
2023-01-20T18:13:50.759Z,47.87
2023-01-20T18:16:19.133Z,47.77
2023-01-20T18:18:48.231Z,49.10
2023-01-20T18:21:16.689Z,50.57
2023-01-20T18:23:46.275Z,49.40
2023-01-20T18:26:17.025Z,54.77
2023-01-20T18:28:47.753Z,55.47
2023-01-20T18:31:17.231Z,57.83
2023-01-20T18:33:48.205Z,54.20
2023-01-20T18:36:17.669Z,50.50
2023-01-20T18:38:49.845Z,56.27
2023-01-20T18:41:18.107Z,57.97
2023-01-20T18:43:45.804Z,56.30
2023-01-20T18:46:13.739Z,51.67
2023-01-20T18:48:42.003Z,52.07
2023-01-20T18:51:10.783Z,50.77
2023-01-20T18:53:38.974Z,54.90
2023-01-20T18:56:09.783Z,51.83
2023-01-20T18:58:38.513Z,52.47
2023-01-20T19:01:06.965Z,52.77
2023-01-20T19:03:34.751Z,56.00
2023-01-20T19:06:06.006Z,55.37
2023-01-20T19:08:33.703Z,57.23
2023-01-20T19:11:01.729Z,53.00
2023-01-20T19:13:31.163Z,53.97
2023-01-20T19:16:00.535Z,46.87
2023-01-20T19:18:28.870Z,48.17
2023-01-20T19:20:56.489Z,52.30
2023-01-20T19:23:24.137Z,48.80
2023-01-20T19:26:00.237Z,47.00
2023-01-20T19:28:28.188Z,42.20
2023-01-20T19:30:57.234Z,48.40
2023-01-20T19:33:25.948Z,43.07
2023-01-20T19:35:53.568Z,43.27
2023-01-20T19:38:21.718Z,44.27
2023-01-20T19:40:49.486Z,42.87
2023-01-20T19:43:17.149Z,44.80
2023-01-20T19:45:45.923Z,46.40
2023-01-20T19:48:15.765Z,44.63
2023-01-20T19:50:44.196Z,43.53
2023-01-20T19:53:11.886Z,45.60
2023-01-20T19:55:39.529Z,43.70
2023-01-20T19:58:07.588Z,47.90
2023-01-20T20:00:35.222Z,49.47
2023-01-20T20:03:06.217Z,48.10
2023-01-20T20:05:40.732Z,48.23
2023-01-20T20:08:08.404Z,49.60
2023-01-20T20:10:41.776Z,43.90
2023-01-20T20:13:09.529Z,47.63
2023-01-20T20:15:37.208Z,46.53
2023-01-20T20:18:06.567Z,45.23
2023-01-20T20:20:34.220Z,46.57
2023-01-20T20:23:03.532Z,40.50
2023-01-20T20:25:31.485Z,43.53
2023-01-20T20:27:59.226Z,43.80
2023-01-20T20:30:26.839Z,45.27
2023-01-20T20:32:54.494Z,52.97
2023-01-20T20:35:22.076Z,45.40
2023-01-20T20:37:49.961Z,43.93
2023-01-20T20:40:19.594Z,39.20
2023-01-20T20:42:48.533Z,46.13
2023-01-20T20:45:16.148Z,43.23
2023-01-20T20:47:44.417Z,45.40
2023-01-20T20:50:13.312Z,51.20
2023-01-20T20:52:41.263Z,41.63
2023-01-20T20:55:12.119Z,42.60
2023-01-20T20:57:41.603Z,40.13
2023-01-20T21:00:10.812Z,41.57
2023-01-20T21:02:39.609Z,39.80
2023-01-20T21:05:07.624Z,32.83
2023-01-20T21:07:35.830Z,34.47
2023-01-20T21:10:04.818Z,36.10
2023-01-20T21:12:32.802Z,49.23
2023-01-20T21:15:01.930Z,43.07
2023-01-20T21:17:29.742Z,37.50
2023-01-20T21:19:57.327Z,40.30
2023-01-20T21:22:25.353Z,34.30
2023-01-20T21:24:52.984Z,38.20
2023-01-20T21:27:21.137Z,34.97
2023-01-20T21:29:48.947Z,31.60
2023-01-20T21:32:17.987Z,32.53
2023-01-20T21:34:45.783Z,34.03
2023-01-20T21:37:13.542Z,32.30
2023-01-20T21:39:41.273Z,30.27
2023-01-20T21:42:09.190Z,30.37
2023-01-20T21:44:36.737Z,30.57
2023-01-20T21:47:05.280Z,35.83
2023-01-20T21:49:52.140Z,25.37
2023-01-20T21:52:38.101Z,29.53
2023-01-20T21:55:07.049Z,33.87
2023-01-20T21:57:34.852Z,29.87
2023-01-20T22:00:03.545Z,25.97
2023-01-20T22:02:40.036Z,30.67
2023-01-20T22:05:09.497Z,28.00
2023-01-20T22:07:38.509Z,24.63
2023-01-20T22:10:07.729Z,24.00
2023-01-20T22:12:35.627Z,24.67
2023-01-20T22:15:04.280Z,24.83
2023-01-20T22:17:32.773Z,26.23
2023-01-20T22:20:00.459Z,25.33
2023-01-20T22:22:29.495Z,22.23
2023-01-20T22:24:59.318Z,27.70
2023-01-20T22:27:27.204Z,25.43
2023-01-20T22:29:54.882Z,26.57
2023-01-20T22:32:22.750Z,22.73
2023-01-20T22:34:50.401Z,23.67
2023-01-20T22:37:18.336Z,25.93
2023-01-20T22:39:48.890Z,29.17
2023-01-20T22:42:16.705Z,23.07
2023-01-20T22:44:44.320Z,24.53
2023-01-20T22:47:12.388Z,30.40
2023-01-20T22:49:39.981Z,24.80
2023-01-20T22:52:07.701Z,26.60
2023-01-20T22:54:35.598Z,27.70
2023-01-20T22:57:04.892Z,25.37
2023-01-20T22:59:32.820Z,27.00
2023-01-20T23:02:00.469Z,23.80
2023-01-20T23:04:28.734Z,23.63
2023-01-20T23:06:56.576Z,28.93
2023-01-20T23:09:24.292Z,27.50
2023-01-20T23:11:51.891Z,22.40
2023-01-20T23:14:41.623Z,25.77
2023-01-20T23:17:09.271Z,28.40
2023-01-20T23:19:36.860Z,26.57
2023-01-20T23:22:04.853Z,27.30
2023-01-20T23:24:32.527Z,30.13
2023-01-20T23:27:00.609Z,23.23
2023-01-20T23:29:30.102Z,24.40
2023-01-20T23:31:57.876Z,28.07
2023-01-20T23:34:25.558Z,27.20
2023-01-20T23:36:53.569Z,24.03
2023-01-20T23:39:21.257Z,26.30
2023-01-20T23:41:49.348Z,29.87
2023-01-20T23:44:16.969Z,24.77
2023-01-20T23:46:46.060Z,26.20
2023-01-20T23:49:13.898Z,25.37
2023-01-20T23:51:41.940Z,26.03
2023-01-20T23:54:10.980Z,27.83
2023-01-20T23:56:39.990Z,24.40
2023-01-20T23:59:08.029Z,26.57
